Alaska Titan — WDE4789 — position and weather

sailwx.info

Track history (hours):
 
Tides and Currents Weather Stations Pressure Air Temp Water Temp Dewpoint Dewpoint Depression Visibility Wind Speed Wind Dir Waves Ship Positions

Alaska Titan

Owner: WESTERN TOWBOAT CO, Seattle, WA. More information available from US FCC via Universal Licensing System and Coast Guard Vessel Documentation Center.

Last reported at 2014-Oct-21 05:00 UTC. Time now 2014-Oct-25 14:29 UTC.
Position N 59°06' W 140°18'.

Length 40 m; draft 6 m.

Type: Tow > 200 m length. MMSI: 367357890.

Wind from 140 at 5 knots

Barometer 992.5 mb
Air temperature 10.0 ° C
Visibility: greater than 5.4 NM

Date/timePositionNaut miles runAvg speedWind from/ knotsBaromVisibWave heightAir tempDewpointWater temp
2014-Oct-21 05:00N 59°06' W 140°18'35 8.6 140 / 5992.5 5.4 10.0
2014-Oct-21 01:00N 58°42' W 139°30'107 8.0 200 / 151002.7 5.4 0.513.9
2014-Oct-20 11:32N 58°16' W 136°11'10 9.7
2014-Oct-20 10:33N 58°17' W 135°53'1010.0
2014-Oct-20 09:34N 58°15' W 135°34'3710.3
2014-Oct-20 06:00N 57°48' W 134°48'   140 / 5988.810.8 10.0
2014-Oct-17 14:34N 51°12' W 127°51'9 9.4
2014-Oct-17 13:33N 51°04' W 127°42'10 9.8
2014-Oct-17 12:33N 50°58' W 127°30'1010.3
2014-Oct-17 11:33N 50°51' W 127°18'11 9.8
2014-Oct-17 10:23N 50°44' W 127°04'10 9.7
2014-Oct-17 09:24N 50°39' W 126°50'2124552.9
2014-Oct-17 05:33N 29°08' W 090°13'2043405.6
2014-Oct-17 00:31N 49°58' W 125°09'7 7.3
2014-Oct-16 23:33N 49°53' W 125°00'6 6.1
2014-Oct-16 22:32N 49°49' W 124°54'7 6.4
2014-Oct-16 21:27N 49°44' W 124°45'6 6.7
2014-Oct-16 20:32N 49°41' W 124°38'3 3.5
2014-Oct-16 19:33N 49°38' W 124°35'5 5.1
2014-Oct-16 18:33N 49°36' W 124°27'7 7.3
2014-Oct-16 17:33N 49°32' W 124°17'10 9.5
2014-Oct-16 16:33N 49°27' W 124°05'1010.1
2014-Oct-16 15:32N 49°22' W 123°52'10 9.8
2014-Oct-16 14:33N 49°16' W 123°40'10 9.9
2014-Oct-16 13:33N 49°09' W 123°29'9 9.4
2014-Oct-16 12:33N 49°03' W 123°19'9 8.9
2014-Oct-16 11:33N 48°57' W 123°08'9 8.6
2014-Oct-16 10:33N 48°51' W 122°58'6 9.1
2014-Oct-16 09:57N 48°48' W 122°52'4 8.9
2014-Oct-16 09:29N 48°46' W 122°46'7 7.9
2014-Oct-16 08:33N 48°39' W 122°43'8 7.7
2014-Oct-16 07:34N 48°31' W 122°44'9 8.5
2014-Oct-16 06:32N 48°22' W 122°45'16 7.9
2014-Oct-16 04:31N 48°07' W 122°39'9 9.5
2014-Oct-16 03:33N 47°58' W 122°34'3 9.0
2014-Oct-16 03:16N 47°57' W 122°31'6 9.2
2014-Oct-16 02:34N 47°51' W 122°27'0 9.5
2014-Oct-16 02:32N 47°51' W 122°27'9 9.7
2014-Oct-16 01:33N 47°41' W 122°27'010.1
2014-Oct-16 01:31N 47°41' W 122°27'6 6.7
2014-Oct-16 00:34N 47°36' W 122°21'0 2.0
2014-Oct-16 00:26N 47°35' W 122°21'0 0.0
2014-Oct-15 23:33N 47°35' W 122°21'0 0.2
2014-Oct-15 23:31N 47°35' W 122°21'4 4.3
2014-Oct-15 22:33N 47°38' W 122°26'011.5
2014-Oct-15 22:31N 47°38' W 122°26'3 3.1
2014-Oct-15 21:33N 47°39' W 122°22'0 3.1
2014-Oct-15 21:31N 47°39' W 122°22'0 0.0
2014-Oct-15 20:33N 47°39' W 122°22'0 0.0
2014-Oct-15 20:31N 47°39' W 122°22'  
Track history (hours):
 
Tides and Currents Weather Stations Pressure Air Temp Water Temp Dewpoint Dewpoint Depression Visibility Wind Speed Wind Dir Waves Ship Positions

Alaska Titan

Owner: WESTERN TOWBOAT CO, Seattle, WA. More information available from US FCC via Universal Licensing System and Coast Guard Vessel Documentation Center.

Last reported at 2014-Oct-21 05:00 UTC. Time now 2014-Oct-25 14:29 UTC.
Position N 59°06' W 140°18'.

Length 40 m; draft 6 m.

Type: Tow > 200 m length. MMSI: 367357890.

Wind from 140 at 5 knots

Barometer 992.5 mb
Air temperature 10.0 ° C
Visibility: greater than 5.4 NM

Date/timePositionNaut miles runAvg speedWind from/ knotsBaromVisibWave heightAir tempDewpointWater temp
2014-Oct-21 05:00N 59°06' W 140°18'35 8.6 140 / 5992.5 5.4 10.0
2014-Oct-21 01:00N 58°42' W 139°30'107 8.0 200 / 151002.7 5.4 0.513.9
2014-Oct-20 11:32N 58°16' W 136°11'10 9.7
2014-Oct-20 10:33N 58°17' W 135°53'1010.0
2014-Oct-20 09:34N 58°15' W 135°34'3710.3
2014-Oct-20 06:00N 57°48' W 134°48'   140 / 5988.810.8 10.0
2014-Oct-17 14:34N 51°12' W 127°51'9 9.4
2014-Oct-17 13:33N 51°04' W 127°42'10 9.8
2014-Oct-17 12:33N 50°58' W 127°30'1010.3
2014-Oct-17 11:33N 50°51' W 127°18'11 9.8
2014-Oct-17 10:23N 50°44' W 127°04'10 9.7
2014-Oct-17 09:24N 50°39' W 126°50'2124552.9
2014-Oct-17 05:33N 29°08' W 090°13'2043405.6
2014-Oct-17 00:31N 49°58' W 125°09'7 7.3
2014-Oct-16 23:33N 49°53' W 125°00'6 6.1
2014-Oct-16 22:32N 49°49' W 124°54'7 6.4
2014-Oct-16 21:27N 49°44' W 124°45'6 6.7
2014-Oct-16 20:32N 49°41' W 124°38'3 3.5
2014-Oct-16 19:33N 49°38' W 124°35'5 5.1
2014-Oct-16 18:33N 49°36' W 124°27'7 7.3
2014-Oct-16 17:33N 49°32' W 124°17'10 9.5
2014-Oct-16 16:33N 49°27' W 124°05'1010.1
2014-Oct-16 15:32N 49°22' W 123°52'10 9.8
2014-Oct-16 14:33N 49°16' W 123°40'10 9.9
2014-Oct-16 13:33N 49°09' W 123°29'9 9.4
2014-Oct-16 12:33N 49°03' W 123°19'9 8.9
2014-Oct-16 11:33N 48°57' W 123°08'9 8.6
2014-Oct-16 10:33N 48°51' W 122°58'6 9.1
2014-Oct-16 09:57N 48°48' W 122°52'4 8.9
2014-Oct-16 09:29N 48°46' W 122°46'7 7.9
2014-Oct-16 08:33N 48°39' W 122°43'8 7.7
2014-Oct-16 07:34N 48°31' W 122°44'9 8.5
2014-Oct-16 06:32N 48°22' W 122°45'16 7.9
2014-Oct-16 04:31N 48°07' W 122°39'9 9.5
2014-Oct-16 03:33N 47°58' W 122°34'3 9.0
2014-Oct-16 03:16N 47°57' W 122°31'6 9.2
2014-Oct-16 02:34N 47°51' W 122°27'0 9.5
2014-Oct-16 02:32N 47°51' W 122°27'9 9.7
2014-Oct-16 01:33N 47°41' W 122°27'010.1
2014-Oct-16 01:31N 47°41' W 122°27'6 6.7
2014-Oct-16 00:34N 47°36' W 122°21'0 2.0
2014-Oct-16 00:26N 47°35' W 122°21'0 0.0
2014-Oct-15 23:33N 47°35' W 122°21'0 0.2
2014-Oct-15 23:31N 47°35' W 122°21'4 4.3
2014-Oct-15 22:33N 47°38' W 122°26'011.5
2014-Oct-15 22:31N 47°38' W 122°26'3 3.1
2014-Oct-15 21:33N 47°39' W 122°22'0 3.1
2014-Oct-15 21:31N 47°39' W 122°22'0 0.0
2014-Oct-15 20:33N 47°39' W 122°22'0 0.0
2014-Oct-15 20:31N 47°39' W 122°22'  

Dump ship's entire track history